Madison, WI (53705)

11:32 AM CDT on May 29, 2015 (GMT -0500)
Hill Farms East | | Change Station
CLOSE
Current Station
Personal Weather Station
Location: Madison, WI
Elevation: 974 ft
Nearby Weather Stations

Elev 974 ft 43.07 °N, 89.46 °W | Updated 2 seconds ago

Partly Cloudy
Partly Cloudy
74.9 °F
Feels Like 76 °F
N
1.0
Wind Variable Wind from South

Today
High -- | Low -- °F
--% Chance of Precip.
Yesterday
High -- | Low -- °F
Precip. -- in
5:23 AM 8:27 PM
Waxing Gibbous, 84% visible
Pressure 29.97 in
Visibility 10.0 miles
Clouds Scattered Clouds 1500 ft
Scattered Clouds 12000 ft
Heat Index 76 °F
Dew Point 68 °F
Humidity 78%
Rainfall 0.14 in
Snow Depth Not available.
UV 8 out of 12
Pollen 4.30 out of 12
Air Quality Not available.
Flu Activity Sporadic
METAR KC29 291615Z AUTO 19007KT 10SM SCT015 SCT120 24/18 A2997 RMK AO1 T02400182

More Conditions Fewer Conditions

Pressure 29.97 in
Visibility 10.0 miles
Clouds Scattered Clouds 1500 ft
Scattered Clouds 12000 ft
Heat Index 76 °F
Dew Point 68 °F
Humidity 78%
Rainfall 0.14 in
Snow Depth Not available.
UV 8 out of 12
Pollen 4.30 out of 12
Air Quality Not available.
Flu Activity Sporadic
METAR KC29 291615Z AUTO 19007KT 10SM SCT015 SCT120 24/18 A2997 RMK AO1 T02400182

More Conditions Fewer Conditions

Nowcast | as of 11:08 am CDT on May 29, 2015

Scattered showers and thunderstorms will continue to develop over southern Wisconsin late this morning and early afternoon. The leading edge of the scattered showers and thunderstorms extended from around Monroe...to Milton to near East Troy...and were moving north at 25 mph. Brief heavy rainfall are likely with the showers and thunderstorms. Keep one eye on the sky this afternoon for approaching thunderstorms...and be ready to seek shelter.

×

10-Day Weather Forecast

Almanac

Astronomy

May. 29, 2015 Rise Set
Actual Time
Civil Twilight
Nautical Twilight
Astronomical Twilight
Moon
Length of Visible Light
Length of Day
Tomorrow will be .
, % of the Moon is Illuminated

Today's Extremes

State Highs State Lows

Community

WunderPhotos

Upload Photos

1,825,301 photos uploaded!

WunderBlogs® & News

Nearby

Air Quality

  Air Quality AQ Index Pollutant
Not available.

Snow Depth

Station Depth Elevation

Earthquake Activity

City Distance Mag. Time & Date
Minimum magnitude displayed is 2.5.

Coastal Water Temperatures

Place Temperature

Stations

Nearby Weather Stations

Station Location Temp. Windchill Dew Point Humidity Wind Precip. Elev Updated Type